Time;durP1;ratioP1;P1;durP2;ratioP2;P2;SDS_P1;SDS_P2;PMS_P1;PMS_P2;Temp;Humidity;BMP_temperature;BMP_pressure;BME280_temperature;BME280_humidity;BME280_pressure;Samples;Min_cycle;Max_cycle;Signal;HPM_P1;HPM_P2
2022/12/23 00:01:04;;;;;;;21.05;14.52;;;;;;;5.66;100.00;98680.47;5054919;28;20048;-77
2022/12/23 00:03:30;;;;;;;16.02;12.55;;;;;;;5.64;100.00;98665.91;5054655;28;20028;-77
2022/12/23 00:05:57;;;;;;;17.08;12.70;;;;;;;5.69;100.00;98688.09;5054464;28;20134;-77
2022/12/23 00:08:23;;;;;;;17.02;12.65;;;;;;;5.61;100.00;98664.31;5054856;28;20361;-77
2022/12/23 00:10:49;;;;;;;16.88;12.93;;;;;;;5.58;100.00;98663.59;5054406;28;20028;-77
2022/12/23 00:16:11;;;;;;;17.92;13.45;;;;;;;5.51;100.00;98670.75;5054899;28;20055;-77
2022/12/23 00:18:38;;;;;;;17.67;13.75;;;;;;;5.43;100.00;98659.91;5054184;28;20048;-77
2022/12/23 00:21:08;;;;;;;15.05;12.05;;;;;;;5.45;100.00;98681.34;5054464;28;20028;-77
2022/12/23 00:23:35;;;;;;;;;;;;;;;5.41;100.00;98683.22;5054928;28;20028;-77
2022/12/23 00:26:01;;;;;;;13.35;11.85;;;;;;;5.27;100.00;98680.38;5054612;28;19913;-77
2022/12/23 00:28:28;;;;;;;15.98;13.38;;;;;;;5.28;100.00;98689.78;5054277;28;20375;-77
2022/12/23 00:31:00;;;;;;;22.02;15.25;;;;;;;5.21;100.00;98678.03;5053919;28;20021;-77
2022/12/23 00:33:29;;;;;;;19.65;14.60;;;;;;;5.17;100.00;98677.31;5054359;28;20024;-77
2022/12/23 00:35:55;;;;;;;16.95;14.48;;;;;;;5.14;100.00;98677.44;5054111;28;20123;-77
2022/12/23 00:44:00;;;;;;;22.42;17.23;;;;;;;5.28;100.00;98676.88;5053642;28;20048;-77
2022/12/23 00:46:26;;;;;;;32.55;22.05;;;;;;;5.21;100.00;98655.63;5054206;28;20104;-77
2022/12/23 00:51:35;;;;;;;48.17;23.95;;;;;;;5.35;100.00;98682.63;5053927;28;20031;-77
2022/12/23 00:54:01;;;;;;;38.55;23.40;;;;;;;5.37;100.00;98686.84;5053548;28;20025;-77
2022/12/23 00:56:26;;;;;;;29.25;20.48;;;;;;;5.42;100.00;98686.63;5054041;28;20035;-76
2022/12/23 00:58:52;;;;;;;24.65;17.38;;;;;;;5.50;100.00;98692.34;5054000;28;20029;-77
2022/12/23 01:07:06;;;;;;;34.45;22.05;;;;;;;5.65;100.00;98686.53;5031340;28;20435;-77
2022/12/23 01:09:32;;;;;;;31.80;22.40;;;;;;;5.61;100.00;98676.41;5031230;28;20488;-77
2022/12/23 01:11:57;;;;;;;30.17;22.75;;;;;;;5.69;100.00;98672.59;5031266;28;20037;-76
2022/12/23 01:14:23;;;;;;;35.50;25.65;;;;;;;5.64;100.00;98660.75;5031224;28;20455;-77
2022/12/23 01:16:48;;;;;;;36.03;25.65;;;;;;;5.67;100.00;98658.06;5030848;28;20029;-77
2022/12/23 01:19:14;;;;;;;40.63;29.30;;;;;;;5.67;100.00;98643.38;5030805;28;20131;-77
2022/12/23 01:21:39;;;;;;;30.65;24.80;;;;;;;5.61;100.00;98633.31;5030725;28;20025;-77
2022/12/23 01:24:05;;;;;;;37.97;28.52;;;;;;;5.69;100.00;98656.25;5030889;28;20179;-76
2022/12/23 01:26:30;;;;;;;41.15;29.20;;;;;;;5.59;100.00;98645.44;5031366;28;20036;-76
2022/12/23 01:28:57;;;;;;;36.10;26.20;;;;;;;5.61;100.00;98653.16;5031118;28;20036;-77
2022/12/23 01:31:24;;;;;;;37.80;28.67;;;;;;;5.51;100.00;98638.03;5014126;28;20033;-76
2022/12/23 01:33:50;;;;;;;43.95;29.90;;;;;;;5.53;100.00;98643.16;5030244;28;20036;-76
2022/12/23 01:36:15;;;;;;;40.35;29.75;;;;;;;5.49;100.00;98626.09;5030726;28;20025;-76
2022/12/23 01:38:41;;;;;;;41.97;30.17;;;;;;;5.48;100.00;98624.44;5049248;28;20136;-77
2022/12/23 01:41:07;;;;;;;43.05;29.75;;;;;;;5.53;100.00;98625.06;5053099;28;20037;-77
2022/12/23 01:43:50;;;;;;;39.75;29.58;;;;;;;5.55;100.00;98625.00;5052946;28;20108;-77
2022/12/23 01:46:16;;;;;;;35.25;25.27;;;;;;;5.44;100.00;98607.38;5053052;28;20096;-77
2022/12/23 01:48:46;;;;;;;31.50;23.08;;;;;;;5.39;100.00;98604.13;5053071;28;20103;-76
2022/12/23 01:51:15;;;;;;;;;;;;;;;5.41;100.00;98623.00;5053325;28;20043;-76
2022/12/23 01:53:45;;;;;;;36.15;27.65;;;;;;;5.28;100.00;98614.94;5052600;28;19998;-76
2022/12/23 01:56:15;;;;;;;37.13;28.33;;;;;;;5.21;100.00;98616.06;5052776;28;20033;-76
2022/12/23 01:58:49;;;;;;;37.45;27.60;;;;;;;5.13;100.00;98607.81;5052434;28;20056;-76
2022/12/23 02:04:03;;;;;;;27.33;22.85;;;;;;;5.12;100.00;98619.88;5052274;28;20024;-77
2022/12/23 02:09:26;;;;;;;31.52;25.73;;;;;;;4.94;100.00;98600.81;5052430;28;20113;-76
2022/12/23 02:12:12;;;;;;;37.50;27.02;;;;;;;4.94;100.00;98613.72;5051921;28;20452;-76
2022/12/23 02:18:09;;;;;;;29.35;24.50;;;;;;;4.79;100.00;98609.16;5029736;28;20100;-76
2022/12/23 02:21:12;;;;;;;30.67;23.58;;;;;;;4.67;100.00;98596.75;5030007;28;20225;-76
2022/12/23 02:24:08;;;;;;;31.83;24.02;;;;;;;4.68;100.00;98614.75;5029840;28;20033;-76
2022/12/23 02:27:01;;;;;;;30.90;25.33;;;;;;;4.65;100.00;98614.03;5029789;28;20029;-76
2022/12/23 02:30:03;;;;;;;37.47;25.05;;;;;;;4.68;100.00;98627.66;5029780;28;20138;-77
2022/12/23 02:32:44;;;;;;;28.27;21.90;;;;;;;4.66;100.00;98613.13;5029719;28;20512;-76
2022/12/23 02:35:15;;;;;;;28.95;21.77;;;;;;;4.65;100.00;98612.31;5029696;28;20107;-76
2022/12/23 02:38:06;;;;;;;27.40;21.52;;;;;;;4.64;100.00;98612.38;5029555;28;20037;-76
2022/12/23 02:40:48;;;;;;;26.80;19.48;;;;;;;4.56;100.00;98606.66;4970899;28;20163;-76
2022/12/23 02:43:28;;;;;;;25.60;19.77;;;;;;;4.45;100.00;98597.59;4970961;28;20117;-76
2022/12/23 02:46:08;;;;;;;34.87;25.33;;;;;;;4.48;100.00;98617.28;4970547;28;20123;-77
2022/12/23 02:48:43;;;;;;;27.33;20.27;;;;;;;4.44;100.00;98618.28;4970789;28;20035;-77
2022/12/23 02:51:12;;;;;;;26.33;19.05;;;;;;;4.32;100.00;98603.28;4970587;28;20270;-77
2022/12/23 02:53:44;;;;;;;23.60;19.77;;;;;;;4.31;100.00;98615.34;4975564;28;20039;-77
2022/12/23 02:56:12;;;;;;;22.40;18.75;;;;;;;4.27;100.00;98606.03;5009755;28;20144;-77
2022/12/23 02:58:44;;;;;;;26.02;18.38;;;;;;;4.34;100.00;98614.38;5009643;28;20041;-77
2022/12/23 03:01:14;;;;;;;25.08;19.95;;;;;;;4.32;100.00;98608.44;5009574;28;20033;-77
2022/12/23 03:03:40;;;;;;;24.45;18.83;;;;;;;4.31;100.00;98596.47;5009599;28;20038;-77
2022/12/23 03:06:18;;;;;;;25.13;20.38;;;;;;;4.48;100.00;98606.97;5009414;28;20030;-77
2022/12/23 03:08:44;;;;;;;24.52;18.45;;;;;;;4.57;100.00;98609.19;5009632;28;20026;-77
2022/12/23 03:11:13;;;;;;;25.30;18.95;;;;;;;4.59;100.00;98599.63;5009264;28;20090;-77
2022/12/23 03:14:15;;;;;;;25.73;19.15;;;;;;;4.70;100.00;98604.38;5012790;28;20075;-77
2022/12/23 03:17:08;;;;;;;23.60;18.60;;;;;;;4.74;100.00;98606.78;5023213;28;20029;-77
2022/12/23 03:19:48;;;;;;;23.27;18.05;;;;;;;4.75;100.00;98603.28;5054329;28;20070;-77
2022/12/23 03:22:17;;;;;;;;;;;;;;;4.78;100.00;98592.00;5056302;28;20013;-77
2022/12/23 03:24:54;;;;;;;21.45;16.40;;;;;;;4.81;100.00;98604.81;5055308;28;19909;-77
2022/12/23 03:27:42;;;;;;;21.95;16.90;;;;;;;4.85;100.00;98603.78;5055580;28;20025;-77
2022/12/23 03:30:12;;;;;;;21.63;18.13;;;;;;;4.84;100.00;98596.06;5055195;28;20029;-77
2022/12/23 03:33:15;;;;;;;21.88;16.35;;;;;;;4.98;100.00;98591.22;5054359;28;20036;-77
2022/12/23 03:35:58;;;;;;;21.92;16.30;;;;;;;4.99;100.00;98577.41;5032974;28;20500;-77
2022/12/23 03:38:25;;;;;;;22.30;16.55;;;;;;;5.01;100.00;98580.75;5032658;28;20041;-77
2022/12/23 03:40:59;;;;;;;21.63;16.70;;;;;;;5.05;100.00;98565.97;5032963;28;20022;-77
2022/12/23 03:43:44;;;;;;;22.08;17.35;;;;;;;5.03;100.00;98552.31;5032717;28;20114;-77
2022/12/23 03:46:22;;;;;;;21.88;16.10;;;;;;;5.05;100.00;98566.81;5032511;28;20045;-77
2022/12/23 03:48:52;;;;;;;19.88;15.85;;;;;;;4.98;100.00;98547.34;5032725;28;20025;-77
2022/12/23 03:51:37;;;;;;;17.80;14.75;;;;;;;5.05;100.00;98558.25;5032661;28;20033;-77
2022/12/23 03:54:09;;;;;;;18.58;15.45;;;;;;;5.11;100.00;98571.75;5032866;28;20072;-77
2022/12/23 03:56:40;;;;;;;19.38;15.63;;;;;;;5.11;100.00;98565.75;5033021;28;20033;-77
2022/12/23 03:59:09;;;;;;;21.02;16.15;;;;;;;5.16;100.00;98571.56;5032760;28;20060;-77
2022/12/23 04:01:56;;;;;;;22.65;17.60;;;;;;;5.22;100.00;98579.03;5032333;28;20030;-77
2022/12/23 04:04:55;;;;;;;24.33;17.83;;;;;;;5.23;100.00;98578.97;5032452;28;20033;-77
2022/12/23 04:07:26;;;;;;;18.80;15.65;;;;;;;5.24;100.00;98578.06;5032472;28;20026;-77
2022/12/23 04:09:52;;;;;;;21.25;18.23;;;;;;;5.27;100.00;98571.94;5032074;28;20029;-77
2022/12/23 04:12:23;;;;;;;18.65;14.30;;;;;;;5.28;100.00;98583.09;5053876;28;20083;-77
2022/12/23 04:14:49;;;;;;;;;;;;;;;5.30;100.00;98582.13;5055086;28;20492;-77
2022/12/23 04:17:16;;;;;;;23.13;15.73;;;;;;;5.22;100.00;98572.16;5054501;28;20007;-77
2022/12/23 04:19:44;;;;;;;17.90;13.85;;;;;;;5.23;100.00;98571.22;5054563;28;20017;-77
2022/12/23 04:22:09;;;;;;;18.13;14.98;;;;;;;5.21;100.00;98562.69;5054207;28;20151;-77
2022/12/23 04:24:35;;;;;;;19.50;15.20;;;;;;;5.25;100.00;98566.84;5052986;28;20104;-77
2022/12/23 04:27:00;;;;;;;20.50;15.68;;;;;;;5.13;100.00;98551.03;5054416;28;20020;-77
2022/12/23 04:29:25;;;;;;;23.63;17.02;;;;;;;5.18;100.00;98551.66;5054323;28;20029;-77
2022/12/23 04:31:51;;;;;;;20.95;15.80;;;;;;;5.24;100.00;98560.00;5054549;28;20044;-77
2022/12/23 04:34:16;;;;;;;18.77;15.75;;;;;;;5.24;100.00;98560.00;5054586;28;20498;-77
2022/12/23 04:36:41;;;;;;;21.05;16.13;;;;;;;5.16;100.00;98545.75;5054217;28;20017;-77
2022/12/23 04:39:08;;;;;;;19.45;15.55;;;;;;;5.19;100.00;98545.63;5053703;28;20397;-77
2022/12/23 04:41:33;;;;;;;20.10;16.33;;;;;;;5.25;100.00;98555.66;5054311;28;20067;-77
2022/12/23 04:43:58;;;;;;;20.83;17.27;;;;;;;5.21;100.00;98544.63;5053750;28;20028;-77
2022/12/23 04:46:24;;;;;;;19.17;15.55;;;;;;;5.11;100.00;98533.03;5054161;28;20080;-77
2022/12/23 04:48:49;;;;;;;22.08;17.40;;;;;;;5.12;100.00;98533.88;5054014;28;20039;-77
2022/12/23 04:51:14;;;;;;;20.25;15.57;;;;;;;5.18;100.00;98547.38;5053564;28;20013;-77
2022/12/23 04:53:40;;;;;;;18.73;15.15;;;;;;;5.17;100.00;98543.09;5054077;28;20051;-77
2022/12/23 04:56:05;;;;;;;19.35;16.27;;;;;;;5.15;100.00;98538.91;5053746;28;20021;-76
2022/12/23 04:58:30;;;;;;;19.52;16.00;;;;;;;5.11;100.00;98534.78;5053967;28;20104;-77
2022/12/23 05:01:03;;;;;;;19.35;15.48;;;;;;;5.19;100.00;98543.88;5053567;28;20100;-77
2022/12/23 05:03:29;;;;;;;21.58;17.10;;;;;;;5.13;100.00;98522.63;5053645;28;20032;-77
2022/12/23 05:05:55;;;;;;;21.23;18.15;;;;;;;5.20;100.00;98539.53;5053386;28;20021;-77
2022/12/23 05:08:20;;;;;;;19.95;16.67;;;;;;;5.16;100.00;98532.84;5053640;28;20075;-77
2022/12/23 05:10:45;;;;;;;21.38;16.08;;;;;;;5.23;100.00;98536.84;5053813;28;20111;-77
2022/12/23 05:13:10;;;;;;;24.08;16.27;;;;;;;5.10;100.00;98515.88;5053510;28;20071;-77
2022/12/23 05:15:36;;;;;;;23.95;17.40;;;;;;;5.18;100.00;98515.53;5053620;28;20021;-77
2022/12/23 05:18:01;;;;;;;21.25;16.75;;;;;;;5.20;100.00;98517.16;5053121;28;20021;-76
2022/12/23 05:20:26;;;;;;;20.58;16.75;;;;;;;5.24;100.00;98530.75;5053524;28;20017;-77
2022/12/23 05:22:52;;;;;;;23.77;17.33;;;;;;;5.21;100.00;98528.31;5053121;28;20075;-76
2022/12/23 05:25:17;;;;;;;20.90;17.20;;;;;;;5.21;100.00;98539.47;5053080;28;20452;-77
2022/12/23 05:27:42;;;;;;;22.52;16.52;;;;;;;5.13;100.00;98513.13;5053329;28;20021;-77
2022/12/23 05:30:08;;;;;;;19.02;15.63;;;;;;;5.16;100.00;98515.59;5053077;28;20013;-77
2022/12/23 05:32:34;;;;;;;20.45;16.45;;;;;;;5.13;100.00;98509.72;5053198;28;20025;-77
2022/12/23 05:34:59;;;;;;;18.85;15.00;;;;;;;5.21;100.00;98523.16;5052800;28;20371;-77
2022/12/23 05:37:24;;;;;;;18.00;14.82;;;;;;;5.20;100.00;98530.06;5052764;28;20021;-77
2022/12/23 05:39:50;;;;;;;19.30;16.83;;;;;;;5.20;100.00;98508.56;5053218;28;20024;-77
2022/12/23 05:42:18;;;;;;;20.10;16.40;;;;;;;5.25;100.00;98524.69;5052865;28;20043;-77
2022/12/23 05:44:44;;;;;;;18.65;15.48;;;;;;;5.26;100.00;98528.94;5052836;28;20025;-77
2022/12/23 05:47:10;;;;;;;17.60;15.60;;;;;;;5.29;100.00;98527.97;5053033;28;20100;-76
2022/12/23 05:49:35;;;;;;;22.08;18.33;;;;;;;5.26;100.00;98516.88;5052906;28;20432;-77
2022/12/23 05:52:00;;;;;;;19.05;16.67;;;;;;;5.28;100.00;98522.00;5052444;28;20074;-77
2022/12/23 05:54:26;;;;;;;19.73;16.45;;;;;;;5.34;100.00;98534.63;5052826;28;20033;-77
2022/12/23 05:56:51;;;;;;;21.10;17.00;;;;;;;5.25;100.00;98516.94;5052785;28;20460;-77
2022/12/23 05:59:16;;;;;;;21.05;16.90;;;;;;;5.31;100.00;98534.78;5052329;28;20025;-77
2022/12/23 06:01:42;;;;;;;20.52;17.00;;;;;;;5.27;100.00;98525.47;5051261;28;20036;-77
2022/12/23 06:04:07;;;;;;;20.27;16.25;;;;;;;5.20;100.00;98511.97;5052316;28;20024;-76
2022/12/23 06:06:32;;;;;;;20.42;16.70;;;;;;;5.26;100.00;98518.63;5052465;28;20032;-76
2022/12/23 06:08:58;;;;;;;19.80;16.70;;;;;;;5.28;100.00;98527.16;5052377;28;20021;-76
2022/12/23 06:11:23;;;;;;;20.65;16.30;;;;;;;5.32;100.00;98533.84;5052572;28;20025;-77
2022/12/23 06:13:49;;;;;;;24.20;18.20;;;;;;;5.25;100.00;98524.69;5052555;28;20031;-77
2022/12/23 06:16:14;;;;;;;21.23;17.85;;;;;;;5.24;100.00;98525.59;5052133;28;20021;-77
2022/12/23 06:18:39;;;;;;;21.58;18.73;;;;;;;5.29;100.00;98539.16;5052284;28;20067;-77
2022/12/23 06:21:04;;;;;;;20.65;17.48;;;;;;;5.29;100.00;98539.16;5052118;28;20028;-76
2022/12/23 06:23:30;;;;;;;23.27;19.80;;;;;;;5.26;100.00;98534.94;5052482;28;20020;-77
2022/12/23 06:26:00;;;;;;;26.13;20.17;;;;;;;5.18;100.00;98518.97;5052271;28;20031;-77
2022/12/23 06:28:25;;;;;;;23.88;19.17;;;;;;;5.18;100.00;98516.38;5052246;28;20032;-76
2022/12/23 06:30:55;;;;;;;23.05;17.58;;;;;;;5.14;100.00;98506.22;5052196;28;20017;-77
2022/12/23 06:33:21;;;;;;;27.33;22.23;;;;;;;5.19;100.00;98517.22;5052202;28;20037;-77
2022/12/23 06:35:47;;;;;;;26.42;20.67;;;;;;;5.27;100.00;98530.66;5052173;28;20108;-77
2022/12/23 06:38:12;;;;;;;21.98;18.50;;;;;;;5.23;100.00;98529.09;5051273;28;20041;-77
2022/12/23 06:40:37;;;;;;;25.70;20.33;;;;;;;5.30;100.00;98537.41;5052379;28;20073;-77
2022/12/23 06:43:03;;;;;;;28.63;22.70;;;;;;;5.33;100.00;98535.53;5051986;28;20038;-77
2022/12/23 06:45:28;;;;;;;29.52;23.52;;;;;;;5.38;100.00;98535.31;5052025;28;20017;-77
2022/12/23 06:47:53;;;;;;;27.83;22.98;;;;;;;5.38;100.00;98530.16;5051188;28;20034;-77
2022/12/23 06:50:19;;;;;;;27.45;23.23;;;;;;;5.36;100.00;98521.66;5050362;28;20029;-77
2022/12/23 06:52:45;;;;;;;25.13;20.88;;;;;;;5.35;100.00;98513.09;5052108;28;20025;-77
2022/12/23 06:55:10;;;;;;;23.45;18.80;;;;;;;5.45;100.00;98524.66;5051798;28;20025;-77
2022/12/23 06:57:35;;;;;;;23.92;18.92;;;;;;;5.46;100.00;98530.66;5051889;28;20112;-77
2022/12/23 07:00:05;;;;;;;23.90;19.65;;;;;;;5.42;100.00;98514.47;5051597;28;20036;-77
2022/12/23 07:02:30;;;;;;;28.60;20.33;;;;;;;5.45;100.00;98524.66;5051712;28;20020;-77
2022/12/23 07:04:56;;;;;;;19.50;17.40;;;;;;;5.46;100.00;98518.59;5051754;28;20017;-77
2022/12/23 07:07:21;;;;;;;23.33;18.38;;;;;;;5.59;100.00;98534.38;5051689;28;20017;-77
2022/12/23 07:09:46;;;;;;;28.92;23.02;;;;;;;5.57;100.00;98519.88;5052030;28;20017;-77
2022/12/23 07:12:11;;;;;;;22.48;19.05;;;;;;;5.63;100.00;98530.75;5051728;28;20025;-77
2022/12/23 07:14:37;;;;;;;21.17;17.63;;;;;;;5.66;100.00;98532.38;5051751;28;20452;-77
2022/12/23 07:17:02;;;;;;;20.15;17.15;;;;;;;5.63;100.00;98517.00;5051511;28;20064;-77
2022/12/23 07:19:27;;;;;;;21.95;17.10;;;;;;;5.73;100.00;98523.44;5051614;28;20452;-77
2022/12/23 07:21:53;;;;;;;25.27;18.20;;;;;;;5.76;100.00;98525.88;5051860;28;20021;-77
2022/12/23 07:24:18;;;;;;;21.25;17.75;;;;;;;5.66;100.00;98507.38;5051585;28;20032;-77
2022/12/23 07:26:43;;;;;;;22.35;17.80;;;;;;;5.81;100.00;98525.69;5052012;28;20025;-77
2022/12/23 07:29:09;;;;;;;19.75;16.75;;;;;;;5.78;100.00;98516.34;5051451;28;20109;-77
2022/12/23 07:31:34;;;;;;;24.85;19.52;;;;;;;5.82;100.00;98520.47;5051547;28;20035;-77
2022/12/23 07:33:59;;;;;;;25.85;21.33;;;;;;;5.90;100.00;98520.09;5051423;28;20029;-77
2022/12/23 07:36:25;;;;;;;24.85;19.40;;;;;;;5.90;100.00;98520.94;5052051;28;20021;-77
2022/12/23 07:38:51;;;;;;;21.88;18.17;;;;;;;5.90;100.00;98523.53;5051920;28;20048;-77
2022/12/23 07:41:16;;;;;;;21.35;16.50;;;;;;;5.91;100.00;98521.78;5051424;28;20025;-77
2022/12/23 07:43:42;;;;;;;21.15;16.35;;;;;;;5.98;100.00;98525.78;5051424;28;20029;-77
2022/12/23 07:46:08;;;;;;;20.60;16.58;;;;;;;6.06;100.00;98528.84;5051228;28;20070;-77
2022/12/23 07:48:34;;;;;;;19.20;16.40;;;;;;;6.03;100.00;98523.00;5051327;28;20098;-77
2022/12/23 07:51:00;;;;;;;18.85;15.60;;;;;;;6.11;100.00;98529.50;5051596;28;20402;-77
2022/12/23 07:53:26;;;;;;;19.52;15.73;;;;;;;6.02;100.00;98521.31;5050983;28;20032;-77
2022/12/23 07:55:52;;;;;;;19.40;16.58;;;;;;;6.15;100.00;98536.19;5051439;28;20017;-77
2022/12/23 07:58:17;;;;;;;19.48;15.45;;;;;;;6.18;100.00;98538.63;5050936;28;20017;-77
2022/12/23 08:00:42;;;;;;;17.15;14.07;;;;;;;6.11;100.00;98519.16;5054871;28;20508;-77
2022/12/23 08:03:10;;;;;;;20.13;16.83;;;;;;;6.20;100.00;98534.22;5054631;28;20025;-77
2022/12/23 08:05:35;;;;;;;22.02;17.48;;;;;;;6.25;100.00;98532.25;5054019;28;20051;-77
2022/12/23 08:08:00;;;;;;;21.52;17.40;;;;;;;6.26;100.00;98525.34;5054979;28;20053;-77
2022/12/23 08:10:26;;;;;;;20.65;16.98;;;;;;;6.18;100.00;98522.28;5055019;28;20016;-77
2022/12/23 08:12:51;;;;;;;26.17;19.10;;;;;;;6.21;100.00;98530.72;5054777;28;20027;-77
2022/12/23 08:15:16;;;;;;;24.13;18.02;;;;;;;6.20;100.00;98533.41;5054427;28;20027;-77
2022/12/23 08:17:42;;;;;;;24.35;17.70;;;;;;;6.20;100.00;98529.06;5054662;28;20017;-77
2022/12/23 08:20:07;;;;;;;22.73;19.15;;;;;;;6.14;100.00;98519.00;5054622;28;20016;-77
2022/12/23 08:22:33;;;;;;;23.70;18.25;;;;;;;6.20;100.00;98529.06;5054706;28;20103;-77
2022/12/23 08:24:58;;;;;;;22.00;16.92;;;;;;;6.17;100.00;98511.09;5054687;28;20033;-77
2022/12/23 08:27:24;;;;;;;19.65;16.40;;;;;;;6.25;100.00;98519.34;5054443;28;20031;-77
2022/12/23 08:29:49;;;;;;;22.83;17.75;;;;;;;6.27;100.00;98524.41;5054513;28;20024;-77
2022/12/23 08:32:15;;;;;;;24.85;19.00;;;;;;;6.23;100.00;98515.13;5054267;28;20073;-77
2022/12/23 08:34:40;;;;;;;21.20;17.83;;;;;;;6.26;100.00;98517.59;5054540;28;20106;-77
2022/12/23 08:37:06;;;;;;;19.70;17.25;;;;;;;6.29;100.00;98517.44;5054528;28;20559;-77
2022/12/23 08:39:31;;;;;;;28.00;23.35;;;;;;;6.33;100.00;98518.97;5054165;28;20056;-77
2022/12/23 08:41:57;;;;;;;22.25;19.33;;;;;;;6.33;100.00;98512.97;5054359;28;20021;-77
2022/12/23 08:44:25;;;;;;;21.17;17.83;;;;;;;6.39;100.00;98521.25;5053762;28;20455;-77
2022/12/23 08:46:51;;;;;;;25.98;18.92;;;;;;;6.38;100.00;98514.41;5054163;28;20112;-77
2022/12/23 08:49:16;;;;;;;26.83;19.02;;;;;;;6.43;100.00;98507.28;5054091;28;20712;-77
2022/12/23 08:51:42;;;;;;;18.73;15.57;;;;;;;6.43;100.00;98509.84;5054519;28;20051;-77
2022/12/23 08:54:08;;;;;;;21.30;14.38;;;;;;;6.52;100.00;98508.56;5054067;28;20036;-77
2022/12/23 08:56:38;;;;;;;17.98;14.15;;;;;;;6.51;100.00;98499.16;5054016;28;20016;-77
2022/12/23 08:59:03;;;;;;;16.85;14.18;;;;;;;6.60;100.00;98516.81;5054023;28;20028;-77
2022/12/23 09:01:31;;;;;;;16.58;13.27;;;;;;;6.63;100.00;98513.25;5053535;28;20198;-77
2022/12/23 09:03:57;;;;;;;16.80;14.15;;;;;;;6.62;100.00;98501.22;5053807;28;20037;-77
2022/12/23 09:06:25;;;;;;;19.15;15.70;;;;;;;6.71;100.00;98514.53;5053686;28;20028;-77
2022/12/23 09:08:51;;;;;;;21.33;16.98;;;;;;;6.66;100.00;98503.59;5053909;28;20025;-77
2022/12/23 09:11:19;;;;;;;28.77;20.63;;;;;;;6.72;100.00;98515.38;5052802;28;20024;-77
2022/12/23 09:13:45;;;;;;;24.00;18.20;;;;;;;6.64;100.00;98497.63;5053762;28;20044;-77
2022/12/23 09:16:11;;;;;;;23.25;17.27;;;;;;;6.68;100.00;98509.50;5053136;28;20021;-77
2022/12/23 09:18:40;;;;;;;18.00;15.55;;;;;;;6.59;100.00;98502.19;5053810;28;20060;-77
2022/12/23 09:21:09;;;;;;;21.55;16.25;;;;;;;6.64;100.00;98517.50;5053440;28;20456;-77
2022/12/23 09:23:35;;;;;;;18.95;14.90;;;;;;;6.60;100.00;98511.63;5053221;28;20036;-77
2022/12/23 09:26:00;;;;;;;18.70;14.57;;;;;;;6.67;100.00;98509.59;5053465;28;20029;-77
2022/12/23 09:28:26;;;;;;;24.90;19.33;;;;;;;6.72;100.00;98507.63;5053154;28;20059;-77
2022/12/23 09:30:51;;;;;;;19.20;15.15;;;;;;;6.70;100.00;98494.75;5053289;28;20052;-77
2022/12/23 09:33:18;;;;;;;19.67;14.52;;;;;;;6.73;100.00;98496.34;5052776;28;20079;-77
2022/12/23 09:35:44;;;;;;;15.95;13.52;;;;;;;6.83;100.00;98510.53;5053274;28;20021;-77
2022/12/23 09:38:09;;;;;;;23.67;17.13;;;;;;;6.86;100.00;98505.16;5053341;28;20132;-77
2022/12/23 09:40:37;;;;;;;24.35;16.75;;;;;;;6.87;100.00;98506.00;5052948;28;20052;-77
2022/12/23 09:43:21;;;;;;;24.13;18.90;;;;;;;6.92;100.00;98501.47;5053108;28;20027;-77
2022/12/23 09:45:55;;;;;;;23.33;16.92;;;;;;;6.91;100.00;98503.22;5053479;28;20021;-77
2022/12/23 09:48:25;;;;;;;23.52;18.85;;;;;;;6.90;100.00;98506.69;5052774;28;20025;-77
2022/12/23 09:50:52;;;;;;;25.17;17.88;;;;;;;6.87;100.00;98493.06;5053149;28;20020;-77
2022/12/23 09:53:21;;;;;;;30.42;23.02;;;;;;;6.93;100.00;98500.53;5052715;28;20063;-77
2022/12/23 09:55:52;;;;;;;24.10;18.20;;;;;;;6.93;100.00;98498.78;5052734;28;20024;-77
2022/12/23 09:58:53;;;;;;;25.73;17.73;;;;;;;6.91;100.00;98500.63;5052443;28;20025;-77
2022/12/23 10:01:34;;;;;;;23.50;18.77;;;;;;;6.90;100.00;98495.50;5030148;28;20084;-76
2022/12/23 10:04:20;;;;;;;24.67;18.65;;;;;;;6.94;100.00;98505.63;5027031;28;20556;-77
2022/12/23 10:06:54;;;;;;;21.95;17.83;;;;;;;7.02;100.00;98505.25;5030175;28;20033;-77
2022/12/23 10:09:19;;;;;;;18.90;15.95;;;;;;;7.05;100.00;98493.91;5030065;28;20029;-77
2022/12/23 10:11:52;;;;;;;22.77;17.73;;;;;;;7.02;100.00;98492.31;5013541;28;20409;-77
2022/12/23 10:14:24;;;;;;;21.95;16.27;;;;;;;6.99;100.00;98485.56;5030271;28;20025;-77
2022/12/23 10:16:58;;;;;;;18.48;15.43;;;;;;;7.01;100.00;98493.22;5030659;28;20033;-77
2022/12/23 10:19:33;;;;;;;19.52;15.98;;;;;;;7.08;100.00;98501.50;5013359;28;20033;-77
2022/12/23 10:22:06;;;;;;;20.55;14.68;;;;;;;7.05;100.00;98489.56;5030168;28;20059;-77
2022/12/23 10:24:39;;;;;;;17.27;14.68;;;;;;;6.99;100.00;98485.56;5014076;28;20045;-77
2022/12/23 10:27:14;;;;;;;18.02;14.10;;;;;;;6.97;100.00;98479.59;5030125;28;20033;-76
2022/12/23 10:29:41;;;;;;;21.38;14.57;;;;;;;7.11;100.00;98501.34;5030526;28;20037;-77
2022/12/23 10:32:32;;;;;;;18.63;14.98;;;;;;;7.16;100.00;98501.94;5030655;28;20088;-77
2022/12/23 10:35:02;;;;;;;22.13;17.13;;;;;;;7.22;100.00;98502.50;5030742;28;20025;-76
2022/12/23 10:37:41;;;;;;;20.33;17.48;;;;;;;7.19;100.00;98488.84;5024770;28;20103;-77
2022/12/23 10:40:31;;;;;;;22.73;18.25;;;;;;;7.18;100.00;98482.84;5032302;28;20032;-77
2022/12/23 10:43:18;;;;;;;28.17;22.67;;;;;;;7.34;100.00;98507.97;5031462;28;20137;-77
2022/12/23 10:46:19;;;;;;;25.75;20.15;;;;;;;7.19;100.00;98487.09;5031667;28;20104;-77
2022/12/23 10:48:54;;;;;;;21.33;17.98;;;;;;;7.36;100.00;98503.53;5032255;28;20032;-77
2022/12/23 10:51:31;;;;;;;19.33;16.05;;;;;;;7.39;100.00;98508.56;5032230;28;20033;-77
2022/12/23 10:54:04;;;;;;;21.30;15.23;;;;;;;7.39;100.00;98517.16;5032278;28;20368;-77
2022/12/23 10:56:30;;;;;;;19.08;15.68;;;;;;;7.40;100.00;98511.06;5032137;28;20036;-76
2022/12/23 10:58:58;;;;;;;20.33;15.27;;;;;;;7.41;100.00;98514.47;5030509;28;20020;-77
2022/12/23 11:01:24;;;;;;;18.08;14.10;;;;;;;7.36;100.00;98500.94;5031595;28;20109;-77
2022/12/23 11:04:14;;;;;;;16.55;13.00;;;;;;;7.42;100.00;98511.00;5031682;28;20105;-77
2022/12/23 11:06:43;;;;;;;19.20;13.95;;;;;;;7.36;100.00;98500.94;5031217;28;20103;-77
2022/12/23 11:09:16;;;;;;;16.25;13.02;;;;;;;7.41;100.00;98504.94;5031538;28;20021;-77
2022/12/23 11:12:03;;;;;;;16.75;12.63;;;;;;;7.38;100.00;98507.72;5031438;28;20083;-77
2022/12/23 11:14:49;;;;;;;14.00;11.05;;;;;;;7.42;100.00;98513.59;5031413;28;20018;-77
2022/12/23 11:17:21;;;;;;;14.13;11.40;;;;;;;7.46;100.00;98518.53;5031603;28;20083;-77
2022/12/23 11:20:04;;;;;;;12.38;10.35;;;;;;;7.44;100.00;98512.56;5031336;28;20021;-77
2022/12/23 11:22:29;;;;;;;10.88;9.25;;;;;;;7.42;100.00;98503.22;5030943;28;20082;-77
2022/12/23 11:25:16;;;;;;;9.88;8.68;;;;;;;7.43;100.00;98502.31;5031094;28;20014;-77
2022/12/23 11:27:43;;;;;;;11.90;9.13;;;;;;;7.49;100.00;98515.75;5030995;28;20479;-77
2022/12/23 11:30:17;;;;;;;11.27;7.70;;;;;;;7.46;100.00;98504.75;5031320;28;20392;-77
2022/12/23 11:32:42;;;;;;;9.98;7.57;;;;;;;7.53;100.00;98518.19;5031098;28;20061;-77
2022/12/23 11:35:23;;;;;;;9.45;7.45;;;;;;;7.60;100.00;98514.38;5033729;28;20156;-77
2022/12/23 11:37:49;;;;;;;12.15;7.50;;;;;;;7.62;100.00;98509.94;5034592;28;20053;-77
2022/12/23 11:40:25;;;;;;;10.82;7.40;;;;;;;7.71;100.00;98510.31;5035200;28;20083;-76
2022/12/23 11:42:58;;;;;;;8.32;6.75;;;;;;;7.75;100.00;98500.59;5033242;28;20489;-76
2022/12/23 11:45:28;;;;;;;10.27;6.80;;;;;;;7.79;100.00;98488.31;5034900;28;20021;-77
2022/12/23 11:47:55;;;;;;;12.90;6.82;;;;;;;7.91;100.00;98495.41;5035117;28;20018;-77
2022/12/23 11:50:30;;;;;;;9.73;6.88;;;;;;;7.96;100.00;98499.47;5034808;28;20067;-76
2022/12/23 11:53:20;;;;;;;11.07;7.28;;;;;;;8.01;100.00;98504.38;5035497;28;20029;-76
2022/12/23 11:56:05;;;;;;;11.38;8.32;;;;;;;8.03;100.00;98497.34;5012740;28;20026;-76
2022/12/23 11:58:48;;;;;;;11.15;7.78;;;;;;;8.03;100.00;98493.91;5012511;28;20065;-77